SDM2325 USCC-USSS
Flight info
| Callsign | SDM2325 |
|---|---|
| Flight time | 0h 22m |
| Altitude | 14000 |
| Route | PESAM2E PESAM PESAM6W |
| Aircraft | A20N/M-SDE2E3FGHIRWXY/LB1 |
Departure
| Time | 2026-04-27 17:04 |
|---|---|
| Airport | Kurchatov Chelyabinsk International Airport (USCC) |
Arrival
| Time | 2026-04-27 17:26 |
|---|---|
| Airport | Koltsovo Airport (USSS) |
| Time | Latitude | Longitude | Altitude | Speed | Heading |
|---|---|---|---|---|---|
| 2026-04-27 17:04 | 55.30395 | 61.58459 | 3757 ft | 210 kts | 56° |
| 2026-04-27 17:04 | 55.31624 | 61.60059 | 4384 ft | 234 kts | 19° |
| 2026-04-27 17:04 | 55.33285 | 61.60309 | 5036 ft | 249 kts | 347° |
| 2026-04-27 17:04 | 55.35007 | 61.59474 | 5740 ft | 263 kts | 334° |
| 2026-04-27 17:05 | 55.36729 | 61.58335 | 6796 ft | 265 kts | 334° |
| 2026-04-27 17:05 | 55.38470 | 61.57245 | 7820 ft | 268 kts | 336° |
| 2026-04-27 17:05 | 55.40263 | 61.56244 | 8817 ft | 274 kts | 338° |
| 2026-04-27 17:05 | 55.41504 | 61.55599 | 9254 ft | 289 kts | 339° |
| 2026-04-27 17:06 | 55.44163 | 61.54299 | 10474 ft | 302 kts | 340° |
| 2026-04-27 17:06 | 55.46268 | 61.53298 | 11054 ft | 324 kts | 340° |
| 2026-04-27 17:06 | 55.48525 | 61.52224 | 11527 ft | 347 kts | 341° |
| 2026-04-27 17:06 | 55.50890 | 61.51103 | 12352 ft | 354 kts | 341° |
| 2026-04-27 17:07 | 55.53283 | 61.49971 | 13322 ft | 359 kts | 340° |
| 2026-04-27 17:07 | 55.55707 | 61.48820 | 13829 ft | 362 kts | 340° |
| 2026-04-27 17:07 | 55.58153 | 61.47653 | 14013 ft | 363 kts | 340° |
| 2026-04-27 17:07 | 55.60599 | 61.46483 | 14078 ft | 364 kts | 340° |
| 2026-04-27 17:08 | 55.63044 | 61.45309 | 14080 ft | 364 kts | 340° |
| 2026-04-27 17:08 | 55.65487 | 61.44134 | 14078 ft | 364 kts | 340° |
| 2026-04-27 17:08 | 55.67923 | 61.42957 | 14083 ft | 364 kts | 341° |
| 2026-04-27 17:08 | 55.70368 | 61.41776 | 14079 ft | 364 kts | 341° |
| 2026-04-27 17:09 | 55.72809 | 61.40595 | 14074 ft | 363 kts | 341° |
| 2026-04-27 17:09 | 55.75249 | 61.39412 | 14076 ft | 364 kts | 341° |
| 2026-04-27 17:09 | 55.77688 | 61.38229 | 14076 ft | 364 kts | 341° |
| 2026-04-27 17:09 | 55.80101 | 61.37057 | 14077 ft | 364 kts | 341° |
| 2026-04-27 17:10 | 55.82539 | 61.35871 | 14076 ft | 364 kts | 341° |
| 2026-04-27 17:10 | 55.84979 | 61.34683 | 14084 ft | 364 kts | 341° |
| 2026-04-27 17:10 | 55.87425 | 61.33490 | 14076 ft | 364 kts | 341° |
| 2026-04-27 17:10 | 55.89865 | 61.32299 | 14074 ft | 364 kts | 341° |
| 2026-04-27 17:11 | 55.92303 | 61.31081 | 14076 ft | 363 kts | 339° |
| 2026-04-27 17:11 | 55.97047 | 61.28084 | 14076 ft | 361 kts | 335° |
| 2026-04-27 17:11 | 55.99411 | 61.26530 | 14066 ft | 362 kts | 336° |
| 2026-04-27 17:12 | 56.04147 | 61.23494 | 14068 ft | 362 kts | 336° |
| 2026-04-27 17:12 | 56.06526 | 61.21995 | 14067 ft | 362 kts | 336° |
| 2026-04-27 17:12 | 56.08899 | 61.20505 | 14060 ft | 362 kts | 336° |
| 2026-04-27 17:13 | 56.11275 | 61.19012 | 14059 ft | 362 kts | 336° |
| 2026-04-27 17:13 | 56.13657 | 61.17514 | 14058 ft | 362 kts | 336° |
| 2026-04-27 17:13 | 56.16029 | 61.16021 | 14061 ft | 362 kts | 336° |
| 2026-04-27 17:13 | 56.18407 | 61.14521 | 14057 ft | 362 kts | 336° |
| 2026-04-27 17:14 | 56.20781 | 61.13019 | 14056 ft | 363 kts | 336° |
| 2026-04-27 17:14 | 56.23165 | 61.11511 | 14054 ft | 363 kts | 336° |
| 2026-04-27 17:14 | 56.25547 | 61.10002 | 14053 ft | 363 kts | 336° |
| 2026-04-27 17:14 | 56.27932 | 61.08489 | 14053 ft | 363 kts | 336° |
| 2026-04-27 17:15 | 56.30313 | 61.06976 | 14050 ft | 363 kts | 336° |
| 2026-04-27 17:15 | 56.32694 | 61.05462 | 14050 ft | 363 kts | 336° |
| 2026-04-27 17:15 | 56.35042 | 61.03964 | 14051 ft | 363 kts | 335° |
| 2026-04-27 17:15 | 56.37246 | 61.01870 | 14051 ft | 355 kts | 319° |
| 2026-04-27 17:16 | 56.38981 | 60.98777 | 14046 ft | 347 kts | 302° |
| 2026-04-27 17:16 | 56.40242 | 60.95108 | 13880 ft | 343 kts | 296° |
| 2026-04-27 17:16 | 56.41479 | 60.91449 | 13347 ft | 345 kts | 302° |
| 2026-04-27 17:16 | 56.42986 | 60.87996 | 12322 ft | 356 kts | 305° |
| 2026-04-27 17:17 | 56.44591 | 60.84487 | 11370 ft | 365 kts | 307° |
| 2026-04-27 17:17 | 56.46255 | 60.81031 | 10650 ft | 364 kts | 308° |
| 2026-04-27 17:17 | 56.47925 | 60.77677 | 10346 ft | 351 kts | 309° |
| 2026-04-27 17:18 | 56.51084 | 60.71434 | 10037 ft | 321 kts | 309° |
| 2026-04-27 17:18 | 56.52554 | 60.68527 | 9903 ft | 307 kts | 309° |
| 2026-04-27 17:18 | 56.53975 | 60.65710 | 9587 ft | 300 kts | 309° |
| 2026-04-27 17:18 | 56.55376 | 60.62923 | 9142 ft | 297 kts | 308° |
| 2026-04-27 17:19 | 56.56764 | 60.60156 | 8695 ft | 296 kts | 308° |
| 2026-04-27 17:19 | 56.58140 | 60.57408 | 8257 ft | 294 kts | 308° |
| 2026-04-27 17:19 | 56.59490 | 60.54714 | 7831 ft | 292 kts | 308° |
| 2026-04-27 17:19 | 56.60853 | 60.51988 | 7396 ft | 291 kts | 308° |
| 2026-04-27 17:20 | 56.62209 | 60.49278 | 6978 ft | 289 kts | 308° |
| 2026-04-27 17:20 | 56.63555 | 60.46584 | 6570 ft | 288 kts | 308° |
| 2026-04-27 17:20 | 56.64895 | 60.43900 | 6177 ft | 285 kts | 308° |
| 2026-04-27 17:20 | 56.66218 | 60.41248 | 5802 ft | 282 kts | 308° |
| 2026-04-27 17:21 | 56.67730 | 60.39000 | 5440 ft | 285 kts | 330° |
| 2026-04-27 17:21 | 56.69652 | 60.38133 | 5087 ft | 291 kts | 358° |
| 2026-04-27 17:21 | 56.71630 | 60.38874 | 4734 ft | 292 kts | 26° |
| 2026-04-27 17:21 | 56.73222 | 60.41059 | 4359 ft | 285 kts | 53° |
| 2026-04-27 17:22 | 56.74358 | 60.43967 | 3960 ft | 279 kts | 64° |
| 2026-04-27 17:22 | 56.75066 | 60.47149 | 3578 ft | 263 kts | 84° |
| 2026-04-27 17:22 | 56.75248 | 60.50373 | 3203 ft | 250 kts | 96° |
| 2026-04-27 17:22 | 56.75196 | 60.53494 | 2826 ft | 243 kts | 99° |
| 2026-04-27 17:23 | 56.75079 | 60.56473 | 2621 ft | 227 kts | 101° |
| 2026-04-27 17:23 | 56.74975 | 60.59209 | 2593 ft | 205 kts | 102° |
| 2026-04-27 17:23 | 56.74880 | 60.61652 | 2617 ft | 180 kts | 103° |
| 2026-04-27 17:23 | 56.74780 | 60.63963 | 2418 ft | 186 kts | 103° |
| 2026-04-27 17:24 | 56.74696 | 60.66275 | 2138 ft | 176 kts | 102° |
| 2026-04-27 17:24 | 56.74610 | 60.68385 | 1863 ft | 158 kts | 101° |
| 2026-04-27 17:24 | 56.74535 | 60.70274 | 1634 ft | 142 kts | 100° |
| 2026-04-27 17:24 | 56.74466 | 60.71983 | 1449 ft | 130 kts | 98° |
| 2026-04-27 17:25 | 56.74423 | 60.73055 | 1329 ft | 128 kts | 99° |
| 2026-04-27 17:25 | 56.74359 | 60.74644 | 1143 ft | 120 kts | 99° |
| 2026-04-27 17:25 | 56.74278 | 60.76692 | 929 ft | 125 kts | 98° |
| 2026-04-27 17:25 | 56.74214 | 60.78275 | 756 ft | 125 kts | 96° |
| 2026-04-27 17:26 | 56.74165 | 60.79269 | 750 ft | 100 kts | 92° |
| 2026-04-27 17:26 | 56.74138 | 60.80165 | 753 ft | 42 kts | 91° |
| 2026-04-27 17:26 | 56.74131 | 60.80484 | 753 ft | 12 kts | 82° |
| 2026-04-27 17:26 | 56.74201 | 60.80568 | 754 ft | 14 kts | 11° |
| 2026-04-27 17:27 | 56.74309 | 60.80597 | 757 ft | 17 kts | 8° |
| 2026-04-27 17:27 | 56.74438 | 60.80632 | 757 ft | 20 kts | 8° |
| 2026-04-27 17:27 | 56.74567 | 60.80649 | 757 ft | 0 kts | 360° |
| 2026-04-27 17:28 | 56.74606 | 60.80649 | 757 ft | 8 kts | 360° |
| 2026-04-27 17:29 | 56.74677 | 60.80648 | 757 ft | 13 kts | 359° |
| 2026-04-27 17:29 | 56.74779 | 60.80644 | 758 ft | 17 kts | 358° |
| 2026-04-27 17:29 | 56.74856 | 60.80592 | 755 ft | 11 kts | 292° |
| 2026-04-27 17:29 | 56.74855 | 60.80428 | 755 ft | 15 kts | 266° |
| 2026-04-27 17:30 | 56.74853 | 60.80317 | 757 ft | 1 kts | 270° |
| 2026-04-27 17:30 | 56.74905 | 60.80247 | 755 ft | 9 kts | 1° |
| 2026-04-27 17:30 | 56.74930 | 60.80247 | 754 ft | 2 kts | 356° |
| 2026-04-27 17:31 | 56.74942 | 60.80245 | 755 ft | 0 kts | 355° |